Time;durP1;ratioP1;P1;durP2;ratioP2;P2;SDS_P1;SDS_P2;PMS_P1;PMS_P2;Temp;Humidity;BMP_temperature;BMP_pressure;BME280_temperature;BME280_humidity;BME280_pressure;Samples;Min_cycle;Max_cycle;Signal;HPM_P1;HPM_P2
2022/02/22 00:01:08;;;;;;;5.40;2.33;;;;;;;9.81;100.00;101078.16;4955772;28;20049;-85
2022/02/22 00:03:36;;;;;;;5.78;2.40;;;;;;;9.77;100.00;101060.72;4974215;28;20037;-76
2022/02/22 00:06:05;;;;;;;15.32;2.95;;;;;;;9.77;100.00;101059.88;4954406;28;20034;-77
2022/02/22 00:08:31;;;;;;;11.68;2.20;;;;;;;9.76;100.00;101050.13;5005066;28;20576;-82
2022/02/22 00:10:58;;;;;;;6.68;1.70;;;;;;;9.71;100.00;101049.75;4972082;28;20037;-77
2022/02/22 00:13:27;;;;;;;9.65;2.67;;;;;;;9.69;100.00;101045.41;4956862;28;20128;-83
2022/02/22 00:15:53;;;;;;;15.90;3.08;;;;;;;9.68;100.00;101035.69;4984621;28;20040;-77
2022/02/22 00:18:19;;;;;;;17.95;2.92;;;;;;;9.62;100.00;101027.44;4971942;28;20061;-76
2022/02/22 00:20:45;;;;;;;18.40;3.90;;;;;;;9.62;100.00;101022.06;4953038;28;20042;-82
2022/02/22 00:23:11;;;;;;;4.45;2.00;;;;;;;9.29;100.00;100972.78;4959356;28;20124;-79
2022/02/22 00:25:37;;;;;;;21.85;4.10;;;;;;;9.59;100.00;101009.78;4972121;28;20037;-80
2022/02/22 00:28:03;;;;;;;19.33;3.65;;;;;;;9.66;100.00;100997.41;4992328;28;20029;-77
2022/02/22 00:30:28;;;;;;;15.57;3.42;;;;;;;9.71;100.00;100998.75;4990336;28;20042;-77
2022/02/22 00:32:57;;;;;;;13.75;3.97;;;;;;;9.77;100.00;100985.50;4976823;28;20041;-77
2022/02/22 00:35:23;;;;;;;15.68;3.60;;;;;;;9.81;100.00;100992.22;4993389;28;20467;-77
2022/02/22 00:37:51;;;;;;;14.10;4.45;;;;;;;9.88;100.00;100984.34;4977898;28;20153;-76
2022/02/22 00:40:21;;;;;;;15.88;3.85;;;;;;;9.90;100.00;100982.34;4963606;28;20143;-81
2022/02/22 00:42:47;;;;;;;18.77;5.15;;;;;;;9.88;100.00;100978.97;4994007;28;20072;-77
2022/02/22 00:45:13;;;;;;;28.02;6.22;;;;;;;9.93;100.00;100970.44;5007449;28;20070;-86
2022/02/22 00:47:39;;;;;;;15.90;3.08;;;;;;;9.94;100.00;100956.81;4958110;28;20495;-77
2022/02/22 00:50:08;;;;;;;19.35;4.40;;;;;;;9.94;100.00;100956.81;4956542;28;20039;-76
2022/02/22 00:52:34;;;;;;;17.10;3.83;;;;;;;9.97;100.00;100953.81;5004108;28;20399;-84
2022/02/22 00:55:03;;;;;;;22.10;4.10;;;;;;;9.96;100.00;100936.00;4989838;28;20120;-78
2022/02/22 00:57:29;;;;;;;23.13;6.00;;;;;;;9.98;100.00;100942.06;4992270;28;20065;-77
2022/02/22 00:59:55;;;;;;;27.40;5.40;;;;;;;9.99;100.00;100941.03;4971851;28;20582;-76
2022/02/22 01:02:20;;;;;;;31.63;5.88;;;;;;;10.04;100.00;100936.00;4972367;28;20034;-80
2022/02/22 01:04:46;;;;;;;29.70;5.22;;;;;;;10.07;100.00;100935.66;4974256;28;20040;-77
2022/02/22 01:07:16;;;;;;;25.48;5.68;;;;;;;10.06;100.00;100934.00;4955547;28;20120;-77
2022/02/22 01:09:46;;;;;;;26.27;5.22;;;;;;;10.07;100.00;100930.28;4995221;28;20447;-77
2022/02/22 01:12:12;;;;;;;23.50;4.13;;;;;;;10.02;100.00;100929.97;4991598;28;20061;-77
2022/02/22 01:14:38;;;;;;;21.48;5.05;;;;;;;10.02;100.00;100924.59;4990977;28;20029;-77
2022/02/22 01:17:04;;;;;;;15.45;4.22;;;;;;;10.01;100.00;100924.78;4976171;28;20506;-81
2022/02/22 01:19:29;;;;;;;24.95;4.78;;;;;;;9.92;100.00;100907.78;4989318;28;20041;-77
2022/02/22 01:21:55;;;;;;;13.00;4.22;;;;;;;9.88;100.00;100909.16;4990765;28;20048;-77
2022/02/22 01:24:21;;;;;;;14.70;3.78;;;;;;;9.87;100.00;100902.94;4982981;28;20034;-77
2022/02/22 01:26:46;;;;;;;25.38;3.70;;;;;;;9.83;100.00;100896.22;4958204;28;20037;-77
2022/02/22 01:29:12;;;;;;;23.90;5.00;;;;;;;9.84;100.00;100897.91;4970723;28;20061;-76
2022/02/22 01:31:38;;;;;;;14.93;4.28;;;;;;;9.81;100.00;100892.03;4955243;28;20049;-79
2022/02/22 01:34:03;;;;;;;32.50;4.53;;;;;;;9.85;100.00;100888.00;4993129;28;20396;-77
2022/02/22 01:36:29;;;;;;;29.95;5.38;;;;;;;9.81;100.00;100879.44;4956162;28;20133;-78
2022/02/22 01:38:57;;;;;;;26.73;4.25;;;;;;;9.84;100.00;100878.25;4975364;28;20082;-76
2022/02/22 01:41:25;;;;;;;30.40;4.65;;;;;;;9.78;100.00;100857.47;4977285;28;20084;-77
2022/02/22 01:43:51;;;;;;;19.42;4.00;;;;;;;9.71;100.00;100859.97;4973576;28;20034;-76
2022/02/22 01:46:17;;;;;;;16.98;3.17;;;;;;;9.60;100.00;100858.44;4969626;28;20141;-78
2022/02/22 01:48:43;;;;;;;8.70;2.85;;;;;;;9.55;100.00;100851.91;4991145;28;20125;-77
2022/02/22 01:51:09;;;;;;;31.20;4.93;;;;;;;9.47;100.00;100858.09;4988760;28;20038;-83
2022/02/22 01:53:34;;;;;;;22.65;4.70;;;;;;;9.29;100.00;100817.16;4968776;28;20059;-76
2022/02/22 01:56:01;;;;;;;22.27;5.03;;;;;;;9.41;100.00;100834.63;4975385;28;20488;-79
2022/02/22 01:58:28;;;;;;;27.55;4.30;;;;;;;9.48;100.00;100816.03;4977521;28;20042;-76
2022/02/22 02:00:54;;;;;;;14.50;4.50;;;;;;;9.70;100.00;100842.19;4988833;28;20125;-76
2022/02/22 02:03:19;;;;;;;32.65;6.03;;;;;;;9.83;100.00;100839.81;5006843;28;20118;-83
2022/02/22 02:05:45;;;;;;;24.23;4.93;;;;;;;9.91;100.00;100847.03;4973935;28;20037;-80
2022/02/22 02:08:11;;;;;;;27.90;4.72;;;;;;;10.01;100.00;100844.19;4990354;28;20464;-77
2022/02/22 02:10:37;;;;;;;25.00;5.80;;;;;;;10.11;100.00;100834.09;4988965;28;20057;-81
2022/02/22 02:13:03;;;;;;;30.05;5.80;;;;;;;10.23;100.00;100829.19;4965565;28;20115;-77
2022/02/22 02:15:29;;;;;;;21.67;4.80;;;;;;;10.27;100.00;100833.22;4954350;28;20032;-80
2022/02/22 02:17:55;;;;;;;24.92;5.68;;;;;;;10.33;100.00;100828.00;4991997;28;20112;-79
2022/02/22 02:20:21;;;;;;;28.58;6.18;;;;;;;10.35;100.00;100822.47;4996320;28;20033;-79
2022/02/22 02:22:47;;;;;;;29.33;5.40;;;;;;;10.37;100.00;100820.44;4973495;28;20441;-85
2022/02/22 02:25:13;;;;;;;17.70;3.40;;;;;;;10.49;100.00;100804.78;4989100;28;20038;-77
2022/02/22 02:27:39;;;;;;;17.95;5.22;;;;;;;10.36;100.00;100786.50;4958380;28;20468;-78
2022/02/22 02:30:07;;;;;;;20.33;5.32;;;;;;;10.43;100.00;100806.31;4989075;28;20041;-84
2022/02/22 02:32:33;;;;;;;25.55;5.95;;;;;;;10.43;100.00;100800.09;4971948;28;20176;-79
2022/02/22 02:34:58;;;;;;;26.05;5.65;;;;;;;10.40;100.00;100793.22;4990318;28;20121;-77
2022/02/22 02:37:24;;;;;;;25.40;4.97;;;;;;;10.37;100.00;100801.63;4988935;28;20029;-77
2022/02/22 02:39:50;;;;;;;15.65;4.22;;;;;;;10.38;100.00;100778.28;4956942;28;20664;-78
2022/02/22 02:42:17;;;;;;;28.40;4.88;;;;;;;10.38;100.00;100784.50;4973282;28;20061;-78
2022/02/22 02:44:44;;;;;;;24.98;4.07;;;;;;;10.27;100.00;100768.72;4988867;28;20042;-82
2022/02/22 02:47:10;;;;;;;20.38;4.07;;;;;;;10.35;100.00;100774.09;4982920;28;20214;-82
2022/02/22 02:49:39;;;;;;;20.23;4.03;;;;;;;10.34;100.00;100754.41;5006083;28;20403;-77
2022/02/22 02:52:06;;;;;;;33.53;6.80;;;;;;;10.35;100.00;100747.22;4971792;28;20037;-77
2022/02/22 02:54:32;;;;;;;24.60;5.32;;;;;;;10.32;100.00;100744.88;4956312;28;20041;-80
2022/02/22 02:56:57;;;;;;;25.17;6.15;;;;;;;10.32;100.00;100723.38;4960902;28;20125;-77
2022/02/22 02:59:23;;;;;;;20.27;4.55;;;;;;;10.34;100.00;100702.53;4957659;28;20476;-76
2022/02/22 03:01:51;;;;;;;21.08;5.05;;;;;;;10.33;100.00;100707.06;4959044;28;20525;-76
2022/02/22 03:04:17;;;;;;;20.38;4.10;;;;;;;10.24;100.00;100710.78;4979277;28;20046;-77
2022/02/22 03:06:43;;;;;;;31.48;5.05;;;;;;;10.05;100.00;100703.94;4988653;28;20065;-77
2022/02/22 03:09:09;;;;;;;24.98;4.57;;;;;;;9.90;100.00;100703.84;4970719;28;20069;-78
2022/02/22 03:11:35;;;;;;;27.85;4.82;;;;;;;9.79;100.00;100698.88;4978913;28;20469;-78
2022/02/22 03:14:00;;;;;;;27.38;5.18;;;;;;;9.74;100.00;100681.56;4965684;28;20128;-80
2022/02/22 03:16:26;;;;;;;41.17;6.13;;;;;;;9.77;100.00;100684.75;4983917;28;20116;-80
2022/02/22 03:18:52;;;;;;;25.88;5.68;;;;;;;9.79;100.00;100671.16;4989749;28;20038;-78
2022/02/22 03:21:18;;;;;;;28.38;5.75;;;;;;;9.85;100.00;100657.88;4968505;28;20042;-78
2022/02/22 03:23:43;;;;;;;36.33;9.32;;;;;;;10.07;100.00;100661.66;4972652;28;20083;-78
2022/02/22 03:26:09;;;;;;;30.20;5.60;;;;;;;10.07;100.00;100650.91;4963646;28;20117;-81
2022/02/22 03:28:35;;;;;;;33.13;5.82;;;;;;;10.12;100.00;100647.69;4971196;28;20045;-80
2022/02/22 03:31:03;;;;;;;36.08;7.05;;;;;;;10.17;100.00;100641.81;4986565;28;20045;-77
2022/02/22 03:33:29;;;;;;;30.70;5.45;;;;;;;10.22;100.00;100645.63;4971211;28;20038;-77
2022/02/22 03:35:54;;;;;;;33.47;8.30;;;;;;;10.21;100.00;100619.75;4989647;28;20099;-77
2022/02/22 03:38:20;;;;;;;22.40;4.57;;;;;;;10.22;100.00;100608.00;4990374;28;20179;-78
2022/02/22 03:40:46;;;;;;;23.88;4.30;;;;;;;10.23;100.00;100595.41;4972119;28;20045;-78
2022/02/22 03:43:11;;;;;;;35.38;6.50;;;;;;;10.24;100.00;100581.81;4991749;28;20042;-77
2022/02/22 03:45:37;;;;;;;26.75;5.53;;;;;;;10.29;100.00;100578.59;4973740;28;20045;-77
2022/02/22 03:48:03;;;;;;;28.45;5.97;;;;;;;10.35;100.00;100569.84;4972543;28;20048;-77
2022/02/22 03:50:28;;;;;;;24.92;7.65;;;;;;;10.37;100.00;100570.47;4969548;28;20502;-77
2022/02/22 03:52:54;;;;;;;35.60;5.60;;;;;;;10.40;100.00;100563.91;4982219;28;20037;-77
2022/02/22 03:55:20;;;;;;;36.50;6.78;;;;;;;10.48;100.00;100553.94;4971921;28;20041;-76
2022/02/22 03:57:46;;;;;;;32.72;6.22;;;;;;;10.46;100.00;100558.66;4968747;28;20042;-79
2022/02/22 04:00:18;;;;;;;33.75;7.10;;;;;;;10.51;100.00;100556.28;4955794;28;20056;-76
2022/02/22 04:02:44;;;;;;;32.63;5.72;;;;;;;10.50;100.00;100546.50;4990190;28;20030;-77
2022/02/22 04:05:10;;;;;;;33.58;4.85;;;;;;;10.62;100.00;100543.41;5004696;28;20471;-77
2022/02/22 04:07:36;;;;;;;29.50;6.82;;;;;;;10.49;100.00;100541.34;4969864;28;20033;-77
2022/02/22 04:10:06;;;;;;;35.92;7.55;;;;;;;10.28;100.00;100539.31;4969996;28;20480;-77
2022/02/22 04:12:33;;;;;;;42.42;8.55;;;;;;;10.11;100.00;100555.53;4972948;28;20034;-75
2022/02/22 04:15:00;;;;;;;11.57;2.13;;;;;;;9.89;100.00;100526.75;4984962;28;20037;-77
2022/02/22 04:17:26;;;;;;;4.75;1.40;;;;;;;9.79;100.00;100520.78;4986620;28;20029;-76
2022/02/22 04:19:52;;;;;;;3.28;1.83;;;;;;;9.69;100.00;100513.78;4966903;28;20030;-77
2022/02/22 04:22:21;;;;;;;5.50;1.85;;;;;;;9.65;100.00;100512.47;4985455;28;20030;-77
2022/02/22 04:24:46;;;;;;;9.75;2.70;;;;;;;9.61;100.00;100494.22;4964435;28;20048;-79
2022/02/22 04:27:12;;;;;;;7.15;2.10;;;;;;;9.59;100.00;100499.75;4984927;28;20039;-77
2022/02/22 04:29:38;;;;;;;11.48;2.33;;;;;;;9.59;100.00;100491.69;4988008;28;20495;-78
2022/02/22 04:32:05;;;;;;;9.80;2.63;;;;;;;9.60;100.00;100481.78;4988769;28;20432;-79
2022/02/22 04:34:31;;;;;;;4.22;2.08;;;;;;;9.60;100.00;100484.47;4983032;28;20042;-79
2022/02/22 04:36:57;;;;;;;3.70;2.08;;;;;;;9.60;100.00;100477.25;5000378;28;20045;-77
2022/02/22 04:39:23;;;;;;;3.13;1.63;;;;;;;9.62;100.00;100477.91;4990000;28;20031;-81
2022/02/22 04:41:50;;;;;;;3.00;1.42;;;;;;;9.61;100.00;100484.31;4957453;28;20045;-80
2022/02/22 04:44:16;;;;;;;4.28;1.30;;;;;;;9.59;100.00;100459.50;4971917;28;20048;-76
2022/02/22 04:46:42;;;;;;;8.05;2.53;;;;;;;9.63;100.00;100463.50;4977483;28;20034;-81
2022/02/22 04:49:09;;;;;;;5.80;2.38;;;;;;;9.61;100.00;100456.63;4991773;28;20484;-77
2022/02/22 04:51:36;;;;;;;8.48;2.85;;;;;;;9.66;100.00;100460.47;4971129;28;20026;-77
2022/02/22 04:54:03;;;;;;;1.05;0.82;;;;;;;9.66;100.00;100449.72;4984080;28;20064;-78
2022/02/22 04:56:28;;;;;;;14.73;3.25;;;;;;;9.66;100.00;100447.03;4983533;28;20617;-77
2022/02/22 04:58:55;;;;;;;14.05;3.33;;;;;;;9.71;100.00;100451.03;4958503;28;20044;-78
2022/02/22 05:01:22;;;;;;;10.65;2.78;;;;;;;9.72;100.00;100429.38;4955699;28;20472;-76
2022/02/22 05:03:48;;;;;;;14.05;2.92;;;;;;;9.74;100.00;100439.91;4969353;28;20042;-76
2022/02/22 05:06:14;;;;;;;15.63;3.50;;;;;;;9.76;100.00;100451.31;4953784;28;20503;-77
2022/02/22 05:08:39;;;;;;;12.02;2.65;;;;;;;9.79;100.00;100462.56;4975923;28;20039;-78
2022/02/22 05:11:05;;;;;;;9.07;1.98;;;;;;;9.83;100.00;100471.09;4961263;28;20476;-78
2022/02/22 05:13:31;;;;;;;12.95;3.10;;;;;;;9.87;100.00;100516.22;4974395;28;20037;-83
2022/02/22 05:15:57;;;;;;;15.65;2.50;;;;;;;9.71;100.00;100629.06;4965659;28;20060;-76
2022/02/22 05:18:23;;;;;;;6.75;1.92;;;;;;;8.67;100.00;100619.16;4979246;28;20095;-76
2022/02/22 05:20:54;;;;;;;4.32;1.30;;;;;;;8.05;100.00;100622.22;4963843;28;20045;-76
2022/02/22 05:23:27;;;;;;;5.95;2.10;;;;;;;7.57;100.00;100627.19;4963632;28;20471;-77
2022/02/22 05:25:54;;;;;;;7.38;1.52;;;;;;;7.25;100.00;100611.78;4970767;28;20092;-77
2022/02/22 05:28:23;;;;;;;12.40;2.20;;;;;;;7.11;100.00;100615.88;4970127;28;20081;-78
2022/02/22 05:30:50;;;;;;;11.77;2.53;;;;;;;6.99;100.00;100646.56;4974721;28;20095;-80
2022/02/22 05:33:16;;;;;;;9.25;1.65;;;;;;;6.90;100.00;100663.50;4989176;28;20042;-76
2022/02/22 05:35:46;;;;;;;2.88;1.23;;;;;;;6.85;100.00;100677.31;4974017;28;20432;-77
2022/02/22 05:38:12;;;;;;;6.07;1.63;;;;;;;6.81;100.00;100700.03;4991721;28;20026;-76
2022/02/22 05:40:38;;;;;;;12.80;2.38;;;;;;;6.77;100.00;100706.66;4992646;28;20388;-76
2022/02/22 05:43:07;;;;;;;13.50;2.78;;;;;;;6.69;100.00;100658.47;4980552;28;20041;-78
2022/02/22 05:45:33;;;;;;;12.30;2.38;;;;;;;6.57;100.00;100705.97;4978003;28;20484;-77
2022/02/22 05:47:59;;;;;;;11.30;2.20;;;;;;;6.57;100.00;100688.09;4990647;28;20044;-76
2022/02/22 05:50:24;;;;;;;4.13;1.65;;;;;;;6.51;100.00;100688.72;4977102;28;20038;-77
2022/02/22 05:52:53;;;;;;;9.27;1.73;;;;;;;6.47;100.00;100673.97;4958495;28;20045;-77
2022/02/22 05:55:19;;;;;;;1.63;0.90;;;;;;;6.38;100.00;100685.56;4988583;28;20080;-79
2022/02/22 05:57:48;;;;;;;8.35;3.05;;;;;;;6.31;100.00;100703.16;4972219;28;20061;-77
2022/02/22 06:00:14;;;;;;;18.27;3.47;;;;;;;6.27;100.00;100699.97;4970926;28;20538;-77
2022/02/22 06:02:39;;;;;;;0.45;0.45;;;;;;;6.26;100.00;100710.78;4995405;28;20026;-77
2022/02/22 06:05:08;;;;;;;16.55;3.13;;;;;;;6.28;100.00;100719.50;4979906;28;20029;-77
2022/02/22 06:07:34;;;;;;;1.05;0.85;;;;;;;6.29;100.00;100724.66;4992274;28;20764;-76
2022/02/22 06:09:59;;;;;;;0.40;0.40;;;;;;;6.31;100.00;100735.22;4993938;28;20133;-80
2022/02/22 06:12:25;;;;;;;0.45;0.45;;;;;;;6.30;100.00;100741.56;4964724;28;20502;-76
2022/02/22 06:14:50;;;;;;;0.85;0.40;;;;;;;6.31;100.00;100762.75;4958218;28;20400;-76
2022/02/22 06:17:16;;;;;;;26.38;3.10;;;;;;;6.32;100.00;100750.25;4960207;28;20041;-76
2022/02/22 06:19:42;;;;;;;1.25;0.47;;;;;;;6.28;100.00;100740.84;4976977;28;20038;-75
2022/02/22 06:22:08;;;;;;;0.40;0.40;;;;;;;6.29;100.00;100753.22;4971185;28;20123;-77
2022/02/22 06:24:33;;;;;;;2.60;0.88;;;;;;;6.25;100.00;100751.84;4971666;28;20041;-75
2022/02/22 06:26:59;;;;;;;0.40;0.40;;;;;;;6.26;100.00;100753.50;4952942;28;20103;-78
2022/02/22 06:29:25;;;;;;;0.40;0.40;;;;;;;6.23;100.00;100756.47;4988891;28;20534;-82
2022/02/22 06:31:51;;;;;;;0.40;0.40;;;;;;;6.21;100.00;100769.13;5003923;28;20049;-80
2022/02/22 06:34:18;;;;;;;0.40;0.40;;;;;;;6.14;100.00;100776.91;5002168;28;20025;-77
2022/02/22 06:36:44;;;;;;;6.22;1.65;;;;;;;6.13;100.00;100778.69;4970930;28;20395;-77
2022/02/22 06:39:10;;;;;;;0.40;0.40;;;;;;;6.15;100.00;100778.56;4999449;28;20045;-80
2022/02/22 06:41:35;;;;;;;1.02;1.02;;;;;;;6.14;100.00;100782.25;4970816;28;20037;-76
2022/02/22 06:44:01;;;;;;;0.40;0.40;;;;;;;6.18;100.00;100790.78;4986838;28;20062;-80
2022/02/22 06:46:27;;;;;;;1.35;0.60;;;;;;;6.14;100.00;100784.91;4981811;28;20037;-76
2022/02/22 06:48:53;;;;;;;0.50;0.50;;;;;;;6.10;100.00;100775.50;4969765;28;20133;-75
2022/02/22 06:51:21;;;;;;;0.50;0.50;;;;;;;6.12;100.00;100777.03;4953911;28;20111;-75
2022/02/22 06:53:49;;;;;;;0.40;0.40;;;;;;;6.11;100.00;100804.72;4971839;28;20041;-75
2022/02/22 06:56:18;;;;;;;0.40;0.40;;;;;;;5.92;100.00;100802.06;4984471;28;20045;-80
2022/02/22 06:58:44;;;;;;;2.55;0.68;;;;;;;5.73;100.00;100793.13;4987014;28;20479;-75
2022/02/22 07:01:10;;;;;;;0.40;0.40;;;;;;;5.69;100.00;100804.25;4983247;28;20037;-76
2022/02/22 07:03:35;;;;;;;0.40;0.40;;;;;;;5.59;100.00;100806.91;4950235;28;20050;-76
2022/02/22 07:06:01;;;;;;;0.40;0.40;;;;;;;5.52;100.00;100803.13;4980481;28;20041;-78
2022/02/22 07:08:29;;;;;;;0.40;0.40;;;;;;;5.35;100.00;100788.69;4968699;28;20476;-77
2022/02/22 07:10:55;;;;;;;0.40;0.40;;;;;;;5.38;100.00;100800.91;4987603;28;20116;-78
2022/02/22 07:13:20;;;;;;;0.50;0.50;;;;;;;5.41;100.00;100811.28;4983943;28;20121;-78
2022/02/22 07:15:46;;;;;;;8.10;1.52;;;;;;;5.48;100.00;100823.91;4966781;28;20060;-78
2022/02/22 07:18:13;;;;;;;0.40;0.40;;;;;;;5.56;100.00;100809.88;4958782;28;20041;-75
2022/02/22 07:20:39;;;;;;;0.40;0.40;;;;;;;5.56;100.00;100809.00;4965358;28;20679;-76
2022/02/22 07:23:05;;;;;;;0.40;0.40;;;;;;;5.61;100.00;100828.09;4981164;28;20034;-75
2022/02/22 07:25:31;;;;;;;0.40;0.40;;;;;;;5.59;100.00;100830.09;4983166;28;20036;-80
2022/02/22 07:27:59;;;;;;;23.98;2.85;;;;;;;5.47;100.00;100845.38;4979560;28;20034;-75
2022/02/22 07:30:25;;;;;;;1.02;1.02;;;;;;;5.46;100.00;100833.88;4958896;28;20029;-76
2022/02/22 07:32:55;;;;;;;1.90;1.40;;;;;;;5.45;100.00;100842.00;4956868;28;20041;-76
2022/02/22 07:35:21;;;;;;;24.58;2.90;;;;;;;5.40;100.00;100847.78;4956528;28;20404;-75
2022/02/22 07:37:47;;;;;;;1.10;0.90;;;;;;;5.29;100.00;100862.09;4988944;28;20048;-77
2022/02/22 07:40:15;;;;;;;4.40;0.60;;;;;;;5.12;100.00;100849.44;4964900;28;20046;-81
2022/02/22 07:42:40;;;;;;;1.40;0.60;;;;;;;5.19;100.00;100873.72;4978435;28;20068;-81
2022/02/22 07:45:07;;;;;;;1.10;0.88;;;;;;;5.32;100.00;100881.44;4990252;28;20656;-78
2022/02/22 07:47:33;;;;;;;0.40;0.40;;;;;;;5.54;100.00;100878.50;4980206;28;20044;-82
2022/02/22 07:49:59;;;;;;;0.40;0.40;;;;;;;5.60;100.00;100879.78;4987022;28;20045;-77
2022/02/22 07:52:28;;;;;;;1.45;0.70;;;;;;;5.57;100.00;100896.91;4998539;28;20037;-78
2022/02/22 07:54:54;;;;;;;0.40;0.40;;;;;;;5.47;100.00;100904.88;4964784;28;20029;-77
2022/02/22 07:57:21;;;;;;;1.05;0.95;;;;;;;5.42;100.00;100903.63;4966173;28;20044;-78
2022/02/22 07:59:47;;;;;;;0.50;0.50;;;;;;;5.59;100.00;100910.94;4995131;28;20480;-77
2022/02/22 08:02:13;;;;;;;0.40;0.40;;;;;;;5.87;100.00;100906.56;4991768;28;20038;-78
2022/02/22 08:04:40;;;;;;;0.50;0.50;;;;;;;6.16;100.00;100914.56;4959186;28;20092;-78
2022/02/22 08:07:06;;;;;;;2.60;1.00;;;;;;;6.49;100.00;100931.09;5007986;28;20503;-79
2022/02/22 08:09:32;;;;;;;0.40;0.40;;;;;;;6.64;100.00;100933.28;4987996;28;20066;-77
2022/02/22 08:11:58;;;;;;;0.45;0.45;;;;;;;6.52;100.00;100932.63;4970108;28;20042;-80
2022/02/22 08:14:30;;;;;;;0.30;0.30;;;;;;;6.32;100.00;100927.31;4970029;28;20065;-77
2022/02/22 08:16:59;;;;;;;0.40;0.40;;;;;;;6.25;100.00;100939.59;4989586;28;20087;-80
2022/02/22 08:19:28;;;;;;;3.95;1.35;;;;;;;6.20;100.00;100935.66;4975184;28;20096;-78
2022/02/22 08:21:54;;;;;;;0.40;0.40;;;;;;;6.21;100.00;100945.34;4955931;28;20133;-79
2022/02/22 08:24:25;;;;;;;0.57;0.52;;;;;;;5.87;100.00;100887.88;4986649;28;20033;-78
2022/02/22 08:26:55;;;;;;;0.40;0.40;;;;;;;6.12;100.00;100926.53;4970432;28;20034;-81
2022/02/22 08:29:24;;;;;;;4.63;1.95;;;;;;;6.19;100.00;100931.28;4975933;28;20033;-77
2022/02/22 08:31:53;;;;;;;0.45;0.45;;;;;;;6.00;100.00;100930.34;4956097;28;20099;-79
2022/02/22 08:34:19;;;;;;;0.63;0.63;;;;;;;5.93;100.00;100932.75;4992108;28;20055;-83
2022/02/22 08:36:45;;;;;;;0.75;0.70;;;;;;;5.94;100.00;100946.91;4988555;28;20034;-78
2022/02/22 08:39:11;;;;;;;0.40;0.40;;;;;;;6.03;100.00;100940.72;4957646;28;20061;-77
2022/02/22 08:41:37;;;;;;;0.60;0.60;;;;;;;6.11;100.00;100953.38;4963947;28;20037;-81
2022/02/22 08:44:10;;;;;;;0.60;0.60;;;;;;;6.15;100.00;100960.13;4970777;28;20152;-78
2022/02/22 08:46:36;;;;;;;1.15;0.85;;;;;;;6.16;100.00;100961.78;5006038;28;20077;-80
2022/02/22 08:49:02;;;;;;;5.50;1.48;;;;;;;6.14;100.00;100959.28;5005131;28;20053;-78
2022/02/22 08:51:28;;;;;;;3.33;1.27;;;;;;;6.22;100.00;100968.38;4992085;28;20038;-77
2022/02/22 08:53:54;;;;;;;21.10;1.92;;;;;;;7.25;100.00;100983.53;4992289;28;20044;-81
2022/02/22 08:56:20;;;;;;;0.98;0.65;;;;;;;8.41;100.00;100983.69;4970365;28;20096;-78
2022/02/22 08:58:45;;;;;;;2.33;2.13;;;;;;;9.03;100.00;100993.31;4986094;28;20049;-77
2022/02/22 09:01:11;;;;;;;10.30;2.38;;;;;;;8.96;100.00;100997.63;4957368;28;20034;-78
2022/02/22 09:03:37;;;;;;;3.50;1.35;;;;;;;10.07;99.69;101005.53;5001676;28;20044;-78
2022/02/22 09:06:03;;;;;;;6.50;1.95;;;;;;;10.66;95.78;101012.59;4964929;28;20056;-83
2022/02/22 09:08:32;;;;;;;5.80;2.05;;;;;;;10.90;94.71;101017.97;4991346;28;20045;-77
2022/02/22 09:10:58;;;;;;;4.72;1.88;;;;;;;10.75;93.02;100969.41;4961324;28;20476;-77
2022/02/22 09:13:32;;;;;;;20.17;2.35;;;;;;;10.76;93.49;101026.72;4961543;28;20484;-81
2022/02/22 09:16:00;;;;;;;13.63;4.25;;;;;;;11.03;93.21;101019.25;4981377;28;20088;-78
2022/02/22 09:18:29;;;;;;;8.88;2.88;;;;;;;12.34;88.58;101011.34;4989857;28;20034;-82
2022/02/22 09:20:58;;;;;;;16.35;4.80;;;;;;;12.61;86.84;101041.44;4988842;28;20080;-77
2022/02/22 09:23:24;;;;;;;19.52;4.13;;;;;;;12.01;88.79;101041.25;4985482;28;20099;-77
2022/02/22 09:25:49;;;;;;;19.83;4.32;;;;;;;10.34;93.98;101038.50;4986725;28;20033;-78
2022/02/22 09:28:15;;;;;;;12.73;2.80;;;;;;;9.48;98.90;101045.00;4967909;28;20041;-81
2022/02/22 09:30:41;;;;;;;15.43;3.45;;;;;;;8.68;100.00;101064.00;4984275;28;20034;-77
2022/02/22 09:33:09;;;;;;;16.08;2.10;;;;;;;8.03;100.00;101058.84;4993832;28;20038;-79
2022/02/22 09:35:35;;;;;;;10.18;2.67;;;;;;;8.74;100.00;101065.19;5019946;28;20056;-84
2022/02/22 09:38:01;;;;;;;11.63;2.53;;;;;;;11.40;89.67;101078.69;4981069;28;20034;-84
2022/02/22 09:40:28;;;;;;;15.95;3.45;;;;;;;12.94;81.94;101079.78;4994345;28;20138;-82
2022/02/22 09:42:53;;;;;;;8.32;2.35;;;;;;;13.09;79.49;101080.63;4993399;28;20535;-84
2022/02/22 09:45:20;;;;;;;14.20;2.20;;;;;;;12.86;80.96;101079.84;5003090;28;20072;-85
2022/02/22 09:47:46;;;;;;;9.18;2.17;;;;;;;13.84;78.01;101101.25;4981231;28;20040;-83
2022/02/22 09:50:12;;;;;;;17.60;4.30;;;;;;;14.66;74.02;101100.06;4978108;28;20030;-83
2022/02/22 09:52:38;;;;;;;14.10;3.95;;;;;;;14.87;72.81;101129.00;5003186;28;20029;-85
2022/02/22 09:55:05;;;;;;;10.15;2.00;;;;;;;15.16;71.43;101116.28;5004279;28;20042;-85
2022/02/22 09:57:33;;;;;;;11.27;3.45;;;;;;;15.55;69.77;101118.41;4969638;28;20060;-85
2022/02/22 09:59:59;;;;;;;14.98;3.17;;;;;;;15.87;69.39;101129.66;4986272;28;20037;-84
2022/02/22 10:02:38;;;;;;;7.57;3.25;;;;;;;16.23;66.94;101128.56;4973175;28;20062;-83
2022/02/22 10:05:14;;;;;;;12.50;3.28;;;;;;;16.46;64.90;101139.91;4989761;28;20124;-84
2022/02/22 10:07:57;;;;;;;8.88;2.67;;;;;;;16.61;63.56;101147.00;4983733;28;20037;-83
2022/02/22 10:10:36;;;;;;;7.47;2.20;;;;;;;16.81;64.88;101152.53;5010472;28;20085;-84
2022/02/22 10:13:02;;;;;;;12.85;3.72;;;;;;;16.80;62.99;101126.38;4970828;28;20065;-84
2022/02/22 10:15:28;;;;;;;13.55;3.97;;;;;;;17.12;61.18;101122.00;4977383;28;20029;-83
2022/02/22 10:17:56;;;;;;;7.45;2.95;;;;;;;17.51;57.90;101131.97;4976155;28;20056;-83
2022/02/22 10:20:22;;;;;;;12.48;3.55;;;;;;;17.76;59.76;101139.47;4973777;28;20029;-83
2022/02/22 10:22:53;;;;;;;9.60;2.42;;;;;;;18.53;58.41;101156.72;4960313;28;20058;-84
2022/02/22 10:25:20;;;;;;;15.38;4.85;;;;;;;18.25;58.69;101159.78;5003885;28;20523;-85
2022/02/22 10:27:50;;;;;;;21.17;5.28;;;;;;;18.01;55.39;101173.06;4970352;28;20101;-86
2022/02/22 10:30:47;;;;;;;15.60;3.95;;;;;;;15.51;62.29;101194.91;4969345;28;20049;-82
2022/02/22 10:33:14;;;;;;;12.43;3.83;;;;;;;12.50;67.98;101207.25;4985680;28;20575;-85
2022/02/22 10:35:41;;;;;;;12.88;3.08;;;;;;;10.72;74.24;101194.84;4999478;28;20076;-91
2022/02/22 10:38:27;;;;;;;9.40;3.50;;;;;;;10.21;76.61;101196.66;4959408;28;20061;-89
2022/02/22 10:41:04;;;;;;;12.52;3.17;;;;;;;12.07;73.59;101221.13;4978981;28;20038;-91
2022/02/22 10:43:35;;;;;;;15.20;3.00;;;;;;;11.13;72.70;101208.28;4987792;28;20084;-89
2022/02/22 10:46:05;;;;;;;12.05;2.25;;;;;;;10.71;71.47;101185.91;4977090;28;20045;-93
2022/02/22 10:48:37;;;;;;;13.00;3.33;;;;;;;11.00;72.55;101193.47;4993009;28;20034;-92
2022/02/22 10:51:12;;;;;;;15.65;3.83;;;;;;;11.35;73.87;101215.69;4989166;28;20033;-92
2022/02/22 10:53:49;;;;;;;11.88;2.55;;;;;;;11.59;74.41;101217.53;5003629;28;20049;-89
2022/02/22 10:56:23;;;;;;;25.85;4.32;;;;;;;13.85;61.76;101200.22;4975263;28;20033;-91
2022/02/22 10:58:52;;;;;;;8.95;3.42;;;;;;;16.17;55.98;101211.59;4983107;28;20044;-93
2022/02/22 11:01:23;;;;;;;11.02;2.17;;;;;;;18.26;48.00;101242.28;4975371;28;20049;-91
2022/02/22 11:03:52;;;;;;;8.05;2.35;;;;;;;18.32;46.88;101238.72;5007748;28;20038;-90
2022/02/22 11:06:20;;;;;;;11.85;3.60;;;;;;;16.68;48.74;101248.34;4984843;28;20060;-90
2022/02/22 11:08:51;;;;;;;7.88;2.33;;;;;;;17.62;48.71;101255.56;4986428;28;20099;-93
2022/02/22 11:11:21;;;;;;;11.10;2.10;;;;;;;18.52;45.23;101253.06;4999297;28;20033;-93
2022/02/22 11:14:07;;;;;;;8.15;2.30;;;;;;;19.67;40.53;101250.25;4961519;28;20657;-94
2022/02/22 11:16:49;;;;;;;16.73;2.67;;;;;;;20.67;38.24;101249.16;4995491;28;20049;-93
2022/02/22 11:19:26;;;;;;;9.15;2.40;;;;;;;18.13;40.48;101262.25;4960039;28;20029;-92